sensor_id;sensor_type;location;lat;lon;timestamp;P1;durP1;ratioP1;P2;durP2;ratioP2
39502;SDS011;26970;49.900;10.774;2024-03-25T00:00:11;6.13;;;3.22;;
39502;SDS011;26970;49.900;10.774;2024-03-25T00:02:38;9.02;;;3.90;;
39502;SDS011;26970;49.900;10.774;2024-03-25T00:05:04;5.45;;;3.17;;
39502;SDS011;26970;49.900;10.774;2024-03-25T00:07:32;8.95;;;3.28;;
39502;SDS011;26970;49.900;10.774;2024-03-25T00:09:57;9.25;;;3.58;;
39502;SDS011;26970;49.900;10.774;2024-03-25T00:12:24;7.95;;;3.65;;
39502;SDS011;26970;49.900;10.774;2024-03-25T00:14:50;6.97;;;3.35;;
39502;SDS011;26970;49.900;10.774;2024-03-25T00:17:16;10.15;;;4.50;;
39502;SDS011;26970;49.900;10.774;2024-03-25T00:19:41;6.75;;;3.70;;
39502;SDS011;26970;49.900;10.774;2024-03-25T00:22:07;6.70;;;3.45;;
39502;SDS011;26970;49.900;10.774;2024-03-25T00:24:32;9.40;;;4.05;;
39502;SDS011;26970;49.900;10.774;2024-03-25T00:26:58;10.32;;;3.70;;
39502;SDS011;26970;49.900;10.774;2024-03-25T00:29:23;6.05;;;3.80;;
39502;SDS011;26970;49.900;10.774;2024-03-25T00:31:49;6.07;;;3.40;;
39502;SDS011;26970;49.900;10.774;2024-03-25T00:34:14;6.10;;;3.58;;
39502;SDS011;26970;49.900;10.774;2024-03-25T00:36:40;11.18;;;4.75;;
39502;SDS011;26970;49.900;10.774;2024-03-25T00:39:05;9.95;;;4.53;;
39502;SDS011;26970;49.900;10.774;2024-03-25T00:41:32;6.82;;;4.25;;
39502;SDS011;26970;49.900;10.774;2024-03-25T00:43:58;7.63;;;3.63;;
39502;SDS011;26970;49.900;10.774;2024-03-25T00:46:23;9.13;;;4.07;;
39502;SDS011;26970;49.900;10.774;2024-03-25T00:48:49;7.93;;;3.95;;
39502;SDS011;26970;49.900;10.774;2024-03-25T00:51:14;8.10;;;3.95;;
39502;SDS011;26970;49.900;10.774;2024-03-25T00:53:40;7.57;;;3.72;;
39502;SDS011;26970;49.900;10.774;2024-03-25T00:56:05;7.25;;;3.92;;
39502;SDS011;26970;49.900;10.774;2024-03-25T00:58:31;6.15;;;4.03;;
39502;SDS011;26970;49.900;10.774;2024-03-25T01:00:56;9.52;;;3.60;;
39502;SDS011;26970;49.900;10.774;2024-03-25T01:03:22;8.40;;;4.43;;
39502;SDS011;26970;49.900;10.774;2024-03-25T01:05:47;11.05;;;3.97;;
39502;SDS011;26970;49.900;10.774;2024-03-25T01:08:13;6.57;;;3.53;;
39502;SDS011;26970;49.900;10.774;2024-03-25T01:10:39;5.90;;;3.40;;
39502;SDS011;26970;49.900;10.774;2024-03-25T01:13:05;9.45;;;4.00;;
39502;SDS011;26970;49.900;10.774;2024-03-25T01:15:30;7.60;;;3.80;;
39502;SDS011;26970;49.900;10.774;2024-03-25T01:17:56;7.63;;;4.00;;
39502;SDS011;26970;49.900;10.774;2024-03-25T01:20:21;9.50;;;4.20;;
39502;SDS011;26970;49.900;10.774;2024-03-25T01:22:47;6.78;;;4.38;;
39502;SDS011;26970;49.900;10.774;2024-03-25T01:25:12;10.25;;;4.30;;
39502;SDS011;26970;49.900;10.774;2024-03-25T01:27:38;6.30;;;3.78;;
39502;SDS011;26970;49.900;10.774;2024-03-25T01:30:04;7.18;;;4.13;;
39502;SDS011;26970;49.900;10.774;2024-03-25T01:32:30;7.65;;;3.90;;
39502;SDS011;26970;49.900;10.774;2024-03-25T01:34:55;14.48;;;4.50;;
39502;SDS011;26970;49.900;10.774;2024-03-25T01:37:21;6.22;;;4.00;;
39502;SDS011;26970;49.900;10.774;2024-03-25T01:39:47;7.45;;;4.13;;
39502;SDS011;26970;49.900;10.774;2024-03-25T01:42:13;8.30;;;4.22;;
39502;SDS011;26970;49.900;10.774;2024-03-25T01:44:39;7.47;;;4.43;;
39502;SDS011;26970;49.900;10.774;2024-03-25T01:47:04;7.80;;;4.00;;
39502;SDS011;26970;49.900;10.774;2024-03-25T01:49:30;6.40;;;4.20;;
39502;SDS011;26970;49.900;10.774;2024-03-25T01:51:56;7.20;;;3.67;;
39502;SDS011;26970;49.900;10.774;2024-03-25T01:54:23;11.43;;;4.50;;
39502;SDS011;26970;49.900;10.774;2024-03-25T01:56:49;11.15;;;4.25;;
39502;SDS011;26970;49.900;10.774;2024-03-25T01:59:15;8.48;;;4.75;;
39502;SDS011;26970;49.900;10.774;2024-03-25T02:01:42;5.22;;;3.90;;
39502;SDS011;26970;49.900;10.774;2024-03-25T02:04:09;7.72;;;5.10;;
39502;SDS011;26970;49.900;10.774;2024-03-25T02:06:34;7.47;;;3.95;;
39502;SDS011;26970;49.900;10.774;2024-03-25T02:09:01;6.97;;;4.22;;
39502;SDS011;26970;49.900;10.774;2024-03-25T02:11:28;6.20;;;4.22;;
39502;SDS011;26970;49.900;10.774;2024-03-25T02:13:54;7.78;;;4.30;;
39502;SDS011;26970;49.900;10.774;2024-03-25T02:16:20;6.57;;;4.05;;
39502;SDS011;26970;49.900;10.774;2024-03-25T02:18:45;8.40;;;4.25;;
39502;SDS011;26970;49.900;10.774;2024-03-25T02:21:11;5.53;;;3.33;;
39502;SDS011;26970;49.900;10.774;2024-03-25T02:23:37;7.30;;;4.18;;
39502;SDS011;26970;49.900;10.774;2024-03-25T02:26:04;7.50;;;4.07;;
39502;SDS011;26970;49.900;10.774;2024-03-25T02:28:29;8.18;;;4.15;;
39502;SDS011;26970;49.900;10.774;2024-03-25T02:30:55;7.28;;;3.95;;
39502;SDS011;26970;49.900;10.774;2024-03-25T02:33:20;7.00;;;3.80;;
39502;SDS011;26970;49.900;10.774;2024-03-25T02:35:46;8.85;;;4.13;;
39502;SDS011;26970;49.900;10.774;2024-03-25T02:38:11;4.90;;;3.50;;
39502;SDS011;26970;49.900;10.774;2024-03-25T02:40:38;9.43;;;3.70;;
39502;SDS011;26970;49.900;10.774;2024-03-25T02:43:03;7.32;;;3.80;;
39502;SDS011;26970;49.900;10.774;2024-03-25T02:45:31;6.80;;;3.97;;
39502;SDS011;26970;49.900;10.774;2024-03-25T02:47:57;9.50;;;4.28;;
39502;SDS011;26970;49.900;10.774;2024-03-25T02:50:22;11.80;;;3.83;;
39502;SDS011;26970;49.900;10.774;2024-03-25T02:52:48;5.70;;;3.80;;
39502;SDS011;26970;49.900;10.774;2024-03-25T02:55:13;8.27;;;4.00;;
39502;SDS011;26970;49.900;10.774;2024-03-25T02:57:39;8.57;;;4.13;;
39502;SDS011;26970;49.900;10.774;2024-03-25T03:00:04;6.53;;;3.55;;
39502;SDS011;26970;49.900;10.774;2024-03-25T03:02:30;8.77;;;3.65;;
39502;SDS011;26970;49.900;10.774;2024-03-25T03:04:56;13.15;;;3.95;;
39502;SDS011;26970;49.900;10.774;2024-03-25T03:07:21;6.80;;;3.67;;
39502;SDS011;26970;49.900;10.774;2024-03-25T03:09:47;7.53;;;3.70;;
39502;SDS011;26970;49.900;10.774;2024-03-25T03:12:12;7.28;;;3.50;;
39502;SDS011;26970;49.900;10.774;2024-03-25T03:14:38;6.93;;;3.70;;
39502;SDS011;26970;49.900;10.774;2024-03-25T03:17:03;6.05;;;3.40;;
39502;SDS011;26970;49.900;10.774;2024-03-25T03:19:30;7.85;;;3.67;;
39502;SDS011;26970;49.900;10.774;2024-03-25T03:21:56;8.48;;;4.15;;
39502;SDS011;26970;49.900;10.774;2024-03-25T03:24:21;7.68;;;3.97;;
39502;SDS011;26970;49.900;10.774;2024-03-25T03:26:47;5.78;;;3.58;;
39502;SDS011;26970;49.900;10.774;2024-03-25T03:29:13;9.52;;;3.35;;
39502;SDS011;26970;49.900;10.774;2024-03-25T03:31:39;8.10;;;3.80;;
39502;SDS011;26970;49.900;10.774;2024-03-25T03:34:04;9.75;;;3.97;;
39502;SDS011;26970;49.900;10.774;2024-03-25T03:36:30;8.25;;;3.83;;
39502;SDS011;26970;49.900;10.774;2024-03-25T03:38:55;9.02;;;3.67;;
39502;SDS011;26970;49.900;10.774;2024-03-25T03:41:20;7.70;;;3.50;;
39502;SDS011;26970;49.900;10.774;2024-03-25T03:43:46;5.13;;;3.70;;
39502;SDS011;26970;49.900;10.774;2024-03-25T03:46:12;10.23;;;3.72;;
39502;SDS011;26970;49.900;10.774;2024-03-25T03:48:37;6.97;;;3.33;;
39502;SDS011;26970;49.900;10.774;2024-03-25T03:51:06;7.75;;;3.42;;
39502;SDS011;26970;49.900;10.774;2024-03-25T03:53:33;9.15;;;3.28;;
39502;SDS011;26970;49.900;10.774;2024-03-25T03:56:01;5.35;;;2.88;;
39502;SDS011;26970;49.900;10.774;2024-03-25T03:58:29;4.75;;;2.80;;
39502;SDS011;26970;49.900;10.774;2024-03-25T04:00:54;7.45;;;3.05;;
39502;SDS011;26970;49.900;10.774;2024-03-25T04:03:20;5.05;;;3.05;;
39502;SDS011;26970;49.900;10.774;2024-03-25T04:05:46;9.23;;;3.53;;
39502;SDS011;26970;49.900;10.774;2024-03-25T04:08:12;5.05;;;2.92;;
39502;SDS011;26970;49.900;10.774;2024-03-25T04:10:38;8.20;;;2.80;;
39502;SDS011;26970;49.900;10.774;2024-03-25T04:13:04;5.97;;;2.67;;
39502;SDS011;26970;49.900;10.774;2024-03-25T04:15:32;8.23;;;3.47;;
39502;SDS011;26970;49.900;10.774;2024-03-25T04:17:58;7.13;;;3.05;;
39502;SDS011;26970;49.900;10.774;2024-03-25T04:20:24;7.40;;;3.47;;
39502;SDS011;26970;49.900;10.774;2024-03-25T04:22:49;8.18;;;3.00;;
39502;SDS011;26970;49.900;10.774;2024-03-25T04:25:15;4.85;;;3.13;;
39502;SDS011;26970;49.900;10.774;2024-03-25T04:27:41;4.75;;;3.08;;
39502;SDS011;26970;49.900;10.774;2024-03-25T04:30:07;5.53;;;3.40;;
39502;SDS011;26970;49.900;10.774;2024-03-25T04:32:34;9.80;;;3.50;;
39502;SDS011;26970;49.900;10.774;2024-03-25T04:35:00;8.05;;;3.70;;
39502;SDS011;26970;49.900;10.774;2024-03-25T04:37:27;4.97;;;3.10;;
39502;SDS011;26970;49.900;10.774;2024-03-25T04:39:53;8.13;;;4.00;;
39502;SDS011;26970;49.900;10.774;2024-03-25T04:42:19;7.22;;;3.97;;
39502;SDS011;26970;49.900;10.774;2024-03-25T04:44:44;12.15;;;4.45;;
39502;SDS011;26970;49.900;10.774;2024-03-25T04:47:10;10.40;;;4.43;;
39502;SDS011;26970;49.900;10.774;2024-03-25T04:49:36;7.68;;;3.47;;
39502;SDS011;26970;49.900;10.774;2024-03-25T04:52:02;9.13;;;4.10;;
39502;SDS011;26970;49.900;10.774;2024-03-25T04:54:29;8.55;;;3.72;;
39502;SDS011;26970;49.900;10.774;2024-03-25T04:56:54;13.75;;;4.93;;
39502;SDS011;26970;49.900;10.774;2024-03-25T04:59:20;6.28;;;3.70;;
39502;SDS011;26970;49.900;10.774;2024-03-25T05:01:46;8.50;;;4.63;;
39502;SDS011;26970;49.900;10.774;2024-03-25T05:04:11;8.40;;;4.15;;
39502;SDS011;26970;49.900;10.774;2024-03-25T05:06:37;10.25;;;3.83;;
39502;SDS011;26970;49.900;10.774;2024-03-25T05:09:02;6.40;;;3.15;;
39502;SDS011;26970;49.900;10.774;2024-03-25T05:11:28;9.48;;;3.80;;
39502;SDS011;26970;49.900;10.774;2024-03-25T05:13:53;8.77;;;3.60;;
39502;SDS011;26970;49.900;10.774;2024-03-25T05:16:19;7.43;;;3.30;;
39502;SDS011;26970;49.900;10.774;2024-03-25T05:18:44;6.78;;;3.30;;
39502;SDS011;26970;49.900;10.774;2024-03-25T05:21:10;6.53;;;3.70;;
39502;SDS011;26970;49.900;10.774;2024-03-25T05:23:35;8.05;;;3.38;;
39502;SDS011;26970;49.900;10.774;2024-03-25T05:26:01;6.35;;;3.35;;
39502;SDS011;26970;49.900;10.774;2024-03-25T05:28:26;9.82;;;4.18;;
39502;SDS011;26970;49.900;10.774;2024-03-25T05:30:52;5.85;;;3.50;;
39502;SDS011;26970;49.900;10.774;2024-03-25T05:33:17;9.63;;;3.25;;
39502;SDS011;26970;49.900;10.774;2024-03-25T05:35:43;11.30;;;3.42;;
39502;SDS011;26970;49.900;10.774;2024-03-25T05:38:08;7.03;;;3.22;;
39502;SDS011;26970;49.900;10.774;2024-03-25T05:40:34;9.60;;;3.53;;
39502;SDS011;26970;49.900;10.774;2024-03-25T05:42:59;7.57;;;4.05;;
39502;SDS011;26970;49.900;10.774;2024-03-25T05:45:25;4.82;;;3.20;;
39502;SDS011;26970;49.900;10.774;2024-03-25T05:47:50;5.85;;;3.50;;
39502;SDS011;26970;49.900;10.774;2024-03-25T05:50:16;7.57;;;4.38;;
39502;SDS011;26970;49.900;10.774;2024-03-25T05:52:42;8.38;;;3.63;;
39502;SDS011;26970;49.900;10.774;2024-03-25T05:55:08;10.75;;;3.72;;
39502;SDS011;26970;49.900;10.774;2024-03-25T05:57:35;7.13;;;3.28;;
39502;SDS011;26970;49.900;10.774;2024-03-25T06:00:01;6.15;;;3.70;;
39502;SDS011;26970;49.900;10.774;2024-03-25T06:02:28;9.27;;;3.22;;
39502;SDS011;26970;49.900;10.774;2024-03-25T06:04:53;11.40;;;3.55;;
39502;SDS011;26970;49.900;10.774;2024-03-25T06:07:21;7.32;;;2.85;;
39502;SDS011;26970;49.900;10.774;2024-03-25T06:09:46;9.35;;;3.58;;
39502;SDS011;26970;49.900;10.774;2024-03-25T06:12:12;6.25;;;3.15;;
39502;SDS011;26970;49.900;10.774;2024-03-25T06:14:38;6.28;;;3.08;;
39502;SDS011;26970;49.900;10.774;2024-03-25T06:17:03;5.78;;;3.13;;
39502;SDS011;26970;49.900;10.774;2024-03-25T06:19:29;7.57;;;3.75;;
39502;SDS011;26970;49.900;10.774;2024-03-25T06:21:54;7.18;;;2.92;;
39502;SDS011;26970;49.900;10.774;2024-03-25T06:24:20;8.32;;;3.28;;
39502;SDS011;26970;49.900;10.774;2024-03-25T06:26:45;5.43;;;3.05;;
39502;SDS011;26970;49.900;10.774;2024-03-25T06:29:11;4.30;;;2.72;;
39502;SDS011;26970;49.900;10.774;2024-03-25T06:31:36;5.97;;;2.90;;
39502;SDS011;26970;49.900;10.774;2024-03-25T06:34:20;7.20;;;3.15;;
39502;SDS011;26970;49.900;10.774;2024-03-25T06:36:46;8.40;;;3.35;;
39502;SDS011;26970;49.900;10.774;2024-03-25T06:39:13;6.45;;;2.85;;
39502;SDS011;26970;49.900;10.774;2024-03-25T06:41:41;5.30;;;2.88;;
39502;SDS011;26970;49.900;10.774;2024-03-25T06:44:07;6.07;;;3.17;;
39502;SDS011;26970;49.900;10.774;2024-03-25T06:46:33;5.32;;;3.00;;
39502;SDS011;26970;49.900;10.774;2024-03-25T06:48:59;6.85;;;2.60;;
39502;SDS011;26970;49.900;10.774;2024-03-25T06:51:24;4.35;;;2.65;;
39502;SDS011;26970;49.900;10.774;2024-03-25T06:53:50;7.55;;;3.20;;
39502;SDS011;26970;49.900;10.774;2024-03-25T06:56:15;6.35;;;2.70;;
39502;SDS011;26970;49.900;10.774;2024-03-25T06:58:41;6.20;;;2.72;;
39502;SDS011;26970;49.900;10.774;2024-03-25T07:01:08;6.15;;;2.83;;
39502;SDS011;26970;49.900;10.774;2024-03-25T07:03:37;10.02;;;2.50;;
39502;SDS011;26970;49.900;10.774;2024-03-25T07:06:03;7.75;;;2.30;;
39502;SDS011;26970;49.900;10.774;2024-03-25T07:08:30;10.15;;;2.95;;
39502;SDS011;26970;49.900;10.774;2024-03-25T07:10:55;3.35;;;2.00;;
39502;SDS011;26970;49.900;10.774;2024-03-25T07:13:21;5.05;;;2.00;;
39502;SDS011;26970;49.900;10.774;2024-03-25T07:15:47;7.60;;;3.90;;
39502;SDS011;26970;49.900;10.774;2024-03-25T07:18:12;7.75;;;2.88;;
39502;SDS011;26970;49.900;10.774;2024-03-25T07:20:38;6.78;;;2.78;;
39502;SDS011;26970;49.900;10.774;2024-03-25T07:23:04;6.68;;;2.55;;
39502;SDS011;26970;49.900;10.774;2024-03-25T07:25:30;6.07;;;2.78;;
39502;SDS011;26970;49.900;10.774;2024-03-25T07:27:56;7.25;;;2.72;;
39502;SDS011;26970;49.900;10.774;2024-03-25T07:30:22;5.40;;;2.30;;
39502;SDS011;26970;49.900;10.774;2024-03-25T07:32:49;3.70;;;2.53;;
39502;SDS011;26970;49.900;10.774;2024-03-25T07:35:15;6.00;;;2.80;;
39502;SDS011;26970;49.900;10.774;2024-03-25T07:37:42;5.43;;;2.50;;
39502;SDS011;26970;49.900;10.774;2024-03-25T07:40:08;6.15;;;2.28;;
39502;SDS011;26970;49.900;10.774;2024-03-25T07:42:34;4.30;;;2.45;;
39502;SDS011;26970;49.900;10.774;2024-03-25T07:45:00;8.20;;;2.08;;
39502;SDS011;26970;49.900;10.774;2024-03-25T07:47:26;7.13;;;2.75;;
39502;SDS011;26970;49.900;10.774;2024-03-25T07:49:51;8.10;;;2.45;;
39502;SDS011;26970;49.900;10.774;2024-03-25T07:52:17;8.07;;;2.65;;
39502;SDS011;26970;49.900;10.774;2024-03-25T07:54:43;9.05;;;2.80;;
39502;SDS011;26970;49.900;10.774;2024-03-25T07:57:09;6.70;;;2.78;;
39502;SDS011;26970;49.900;10.774;2024-03-25T07:59:34;5.72;;;2.35;;
39502;SDS011;26970;49.900;10.774;2024-03-25T08:02:00;3.13;;;2.00;;
39502;SDS011;26970;49.900;10.774;2024-03-25T08:04:25;5.32;;;2.55;;
39502;SDS011;26970;49.900;10.774;2024-03-25T08:06:51;11.02;;;2.55;;
39502;SDS011;26970;49.900;10.774;2024-03-25T08:09:16;5.45;;;2.80;;
39502;SDS011;26970;49.900;10.774;2024-03-25T08:11:42;5.72;;;2.40;;
39502;SDS011;26970;49.900;10.774;2024-03-25T08:14:08;4.05;;;2.17;;
39502;SDS011;26970;49.900;10.774;2024-03-25T08:16:34;9.73;;;2.58;;
39502;SDS011;26970;49.900;10.774;2024-03-25T08:19:00;7.65;;;2.63;;
39502;SDS011;26970;49.900;10.774;2024-03-25T08:21:25;4.35;;;2.25;;
39502;SDS011;26970;49.900;10.774;2024-03-25T08:23:51;6.00;;;2.10;;
39502;SDS011;26970;49.900;10.774;2024-03-25T08:26:17;5.55;;;2.45;;
39502;SDS011;26970;49.900;10.774;2024-03-25T08:28:42;5.25;;;2.25;;
39502;SDS011;26970;49.900;10.774;2024-03-25T08:31:08;5.97;;;2.58;;
39502;SDS011;26970;49.900;10.774;2024-03-25T08:33:33;7.20;;;2.58;;
39502;SDS011;26970;49.900;10.774;2024-03-25T08:35:59;4.57;;;2.10;;
39502;SDS011;26970;49.900;10.774;2024-03-25T08:38:24;7.28;;;3.05;;
39502;SDS011;26970;49.900;10.774;2024-03-25T08:40:50;10.07;;;2.33;;
39502;SDS011;26970;49.900;10.774;2024-03-25T08:43:16;4.78;;;2.10;;
39502;SDS011;26970;49.900;10.774;2024-03-25T08:45:42;3.83;;;2.20;;
39502;SDS011;26970;49.900;10.774;2024-03-25T08:48:08;6.05;;;2.33;;
39502;SDS011;26970;49.900;10.774;2024-03-25T08:50:34;7.15;;;2.80;;
39502;SDS011;26970;49.900;10.774;2024-03-25T08:52:59;2.92;;;2.00;;
39502;SDS011;26970;49.900;10.774;2024-03-25T08:55:26;7.85;;;2.35;;
39502;SDS011;26970;49.900;10.774;2024-03-25T08:57:52;5.80;;;2.40;;
39502;SDS011;26970;49.900;10.774;2024-03-25T09:00:18;7.25;;;2.35;;
39502;SDS011;26970;49.900;10.774;2024-03-25T09:02:44;4.75;;;1.98;;
39502;SDS011;26970;49.900;10.774;2024-03-25T09:05:10;7.57;;;2.92;;
39502;SDS011;26970;49.900;10.774;2024-03-25T09:07:35;3.53;;;2.22;;
39502;SDS011;26970;49.900;10.774;2024-03-25T09:10:01;3.92;;;2.13;;
39502;SDS011;26970;49.900;10.774;2024-03-25T09:12:46;5.03;;;2.22;;
39502;SDS011;26970;49.900;10.774;2024-03-25T09:15:11;7.13;;;2.70;;
39502;SDS011;26970;49.900;10.774;2024-03-25T09:17:37;8.15;;;3.05;;
39502;SDS011;26970;49.900;10.774;2024-03-25T09:20:04;5.22;;;2.63;;
39502;SDS011;26970;49.900;10.774;2024-03-25T09:22:40;12.13;;;2.90;;
39502;SDS011;26970;49.900;10.774;2024-03-25T09:25:06;5.13;;;2.42;;
39502;SDS011;26970;49.900;10.774;2024-03-25T09:27:32;5.88;;;2.60;;
39502;SDS011;26970;49.900;10.774;2024-03-25T09:29:57;6.65;;;2.90;;
39502;SDS011;26970;49.900;10.774;2024-03-25T09:32:23;11.85;;;2.90;;
39502;SDS011;26970;49.900;10.774;2024-03-25T09:34:49;4.30;;;2.65;;
39502;SDS011;26970;49.900;10.774;2024-03-25T09:37:15;3.22;;;2.00;;
39502;SDS011;26970;49.900;10.774;2024-03-25T09:39:40;4.65;;;2.10;;
39502;SDS011;26970;49.900;10.774;2024-03-25T09:42:06;4.60;;;2.35;;
39502;SDS011;26970;49.900;10.774;2024-03-25T09:44:33;5.57;;;2.05;;
39502;SDS011;26970;49.900;10.774;2024-03-25T09:47:00;5.13;;;2.03;;
39502;SDS011;26970;49.900;10.774;2024-03-25T09:49:26;2.97;;;1.27;;
39502;SDS011;26970;49.900;10.774;2024-03-25T09:51:53;4.25;;;1.60;;
39502;SDS011;26970;49.900;10.774;2024-03-25T09:54:19;4.25;;;1.30;;
39502;SDS011;26970;49.900;10.774;2024-03-25T09:56:45;1.63;;;1.30;;
39502;SDS011;26970;49.900;10.774;2024-03-25T09:59:12;5.22;;;1.50;;
39502;SDS011;26970;49.900;10.774;2024-03-25T10:01:38;3.55;;;1.58;;
39502;SDS011;26970;49.900;10.774;2024-03-25T10:04:04;3.05;;;1.40;;
39502;SDS011;26970;49.900;10.774;2024-03-25T10:06:29;2.03;;;1.38;;
39502;SDS011;26970;49.900;10.774;2024-03-25T10:08:55;5.35;;;2.20;;
39502;SDS011;26970;49.900;10.774;2024-03-25T10:11:22;3.25;;;1.88;;
39502;SDS011;26970;49.900;10.774;2024-03-25T10:13:47;4.82;;;2.25;;
39502;SDS011;26970;49.900;10.774;2024-03-25T10:16:13;3.58;;;2.03;;
39502;SDS011;26970;49.900;10.774;2024-03-25T10:18:39;2.90;;;1.90;;
39502;SDS011;26970;49.900;10.774;2024-03-25T10:21:05;2.85;;;1.80;;
39502;SDS011;26970;49.900;10.774;2024-03-25T10:23:35;3.85;;;1.60;;
39502;SDS011;26970;49.900;10.774;2024-03-25T10:26:05;3.92;;;1.50;;
39502;SDS011;26970;49.900;10.774;2024-03-25T10:28:31;1.92;;;1.50;;
39502;SDS011;26970;49.900;10.774;2024-03-25T10:31:02;5.60;;;1.58;;
39502;SDS011;26970;49.900;10.774;2024-03-25T10:35:54;3.70;;;1.45;;
39502;SDS011;26970;49.900;10.774;2024-03-25T10:38:22;4.30;;;1.65;;
39502;SDS011;26970;49.900;10.774;2024-03-25T10:40:50;5.25;;;2.00;;
39502;SDS011;26970;49.900;10.774;2024-03-25T10:43:18;3.60;;;1.48;;
39502;SDS011;26970;49.900;10.774;2024-03-25T10:45:45;4.97;;;1.85;;
39502;SDS011;26970;49.900;10.774;2024-03-25T10:48:20;5.32;;;1.95;;
39502;SDS011;26970;49.900;10.774;2024-03-25T10:50:51;5.95;;;1.88;;
39502;SDS011;26970;49.900;10.774;2024-03-25T10:53:20;6.68;;;1.70;;
39502;SDS011;26970;49.900;10.774;2024-03-25T10:55:48;3.03;;;1.58;;
39502;SDS011;26970;49.900;10.774;2024-03-25T10:58:19;7.23;;;2.10;;
39502;SDS011;26970;49.900;10.774;2024-03-25T11:00:47;4.97;;;1.98;;
39502;SDS011;26970;49.900;10.774;2024-03-25T11:03:14;2.80;;;1.50;;
39502;SDS011;26970;49.900;10.774;2024-03-25T11:05:40;7.53;;;1.90;;
39502;SDS011;26970;49.900;10.774;2024-03-25T11:08:10;1.95;;;1.35;;
39502;SDS011;26970;49.900;10.774;2024-03-25T11:10:39;5.82;;;1.73;;
39502;SDS011;26970;49.900;10.774;2024-03-25T11:13:09;4.90;;;1.90;;
39502;SDS011;26970;49.900;10.774;2024-03-25T11:15:37;4.45;;;1.95;;
39502;SDS011;26970;49.900;10.774;2024-03-25T11:18:10;6.28;;;2.58;;
39502;SDS011;26970;49.900;10.774;2024-03-25T11:20:39;4.97;;;1.65;;
39502;SDS011;26970;49.900;10.774;2024-03-25T11:23:12;4.70;;;1.73;;
39502;SDS011;26970;49.900;10.774;2024-03-25T11:25:38;5.72;;;2.10;;
39502;SDS011;26970;49.900;10.774;2024-03-25T11:28:05;3.63;;;1.65;;
39502;SDS011;26970;49.900;10.774;2024-03-25T11:30:31;4.85;;;2.40;;
39502;SDS011;26970;49.900;10.774;2024-03-25T11:32:57;7.13;;;2.03;;
39502;SDS011;26970;49.900;10.774;2024-03-25T11:35:26;3.80;;;1.70;;
39502;SDS011;26970;49.900;10.774;2024-03-25T11:37:51;3.03;;;1.60;;
39502;SDS011;26970;49.900;10.774;2024-03-25T11:40:17;6.78;;;1.85;;
39502;SDS011;26970;49.900;10.774;2024-03-25T11:42:43;3.08;;;1.50;;
39502;SDS011;26970;49.900;10.774;2024-03-25T11:45:30;4.65;;;1.85;;
39502;SDS011;26970;49.900;10.774;2024-03-25T11:47:56;3.05;;;1.55;;
39502;SDS011;26970;49.900;10.774;2024-03-25T11:50:23;3.67;;;1.83;;
39502;SDS011;26970;49.900;10.774;2024-03-25T11:52:48;2.88;;;1.40;;
39502;SDS011;26970;49.900;10.774;2024-03-25T11:55:17;4.20;;;1.60;;
39502;SDS011;26970;49.900;10.774;2024-03-25T11:57:43;9.75;;;1.95;;
39502;SDS011;26970;49.900;10.774;2024-03-25T12:00:08;4.25;;;1.63;;
39502;SDS011;26970;49.900;10.774;2024-03-25T12:02:42;8.30;;;1.80;;
39502;SDS011;26970;49.900;10.774;2024-03-25T12:05:10;2.17;;;1.27;;
39502;SDS011;26970;49.900;10.774;2024-03-25T12:07:36;2.28;;;1.35;;
39502;SDS011;26970;49.900;10.774;2024-03-25T12:10:01;2.78;;;1.35;;
39502;SDS011;26970;49.900;10.774;2024-03-25T12:12:46;3.35;;;1.70;;
39502;SDS011;26970;49.900;10.774;2024-03-25T12:15:12;2.45;;;1.58;;
39502;SDS011;26970;49.900;10.774;2024-03-25T12:17:38;3.90;;;1.48;;
39502;SDS011;26970;49.900;10.774;2024-03-25T12:20:04;2.65;;;1.52;;
39502;SDS011;26970;49.900;10.774;2024-03-25T12:22:33;3.03;;;1.48;;
39502;SDS011;26970;49.900;10.774;2024-03-25T12:24:59;5.53;;;1.92;;
39502;SDS011;26970;49.900;10.774;2024-03-25T12:27:27;3.53;;;1.73;;
39502;SDS011;26970;49.900;10.774;2024-03-25T12:30:04;6.38;;;1.60;;
39502;SDS011;26970;49.900;10.774;2024-03-25T12:32:35;4.85;;;1.88;;
39502;SDS011;26970;49.900;10.774;2024-03-25T12:35:01;2.13;;;1.27;;
39502;SDS011;26970;49.900;10.774;2024-03-25T12:37:26;6.97;;;1.70;;
39502;SDS011;26970;49.900;10.774;2024-03-25T12:39:52;7.63;;;2.33;;
39502;SDS011;26970;49.900;10.774;2024-03-25T12:42:17;7.80;;;1.95;;
39502;SDS011;26970;49.900;10.774;2024-03-25T12:44:43;4.07;;;1.83;;
39502;SDS011;26970;49.900;10.774;2024-03-25T12:47:09;6.40;;;1.80;;
39502;SDS011;26970;49.900;10.774;2024-03-25T12:49:35;2.88;;;1.60;;
39502;SDS011;26970;49.900;10.774;2024-03-25T12:52:00;2.13;;;1.55;;
39502;SDS011;26970;49.900;10.774;2024-03-25T12:54:29;2.80;;;1.35;;
39502;SDS011;26970;49.900;10.774;2024-03-25T12:56:55;2.33;;;1.50;;
39502;SDS011;26970;49.900;10.774;2024-03-25T12:59:20;5.43;;;1.65;;
39502;SDS011;26970;49.900;10.774;2024-03-25T13:01:46;4.20;;;1.48;;
39502;SDS011;26970;49.900;10.774;2024-03-25T13:04:11;4.85;;;1.73;;
39502;SDS011;26970;49.900;10.774;2024-03-25T13:06:38;4.38;;;1.52;;
39502;SDS011;26970;49.900;10.774;2024-03-25T13:09:03;3.53;;;1.50;;
39502;SDS011;26970;49.900;10.774;2024-03-25T13:11:29;6.03;;;1.70;;
39502;SDS011;26970;49.900;10.774;2024-03-25T13:13:54;5.18;;;1.73;;
39502;SDS011;26970;49.900;10.774;2024-03-25T13:16:20;3.05;;;1.67;;
39502;SDS011;26970;49.900;10.774;2024-03-25T13:18:46;2.80;;;1.60;;
39502;SDS011;26970;49.900;10.774;2024-03-25T13:21:11;4.63;;;1.80;;
39502;SDS011;26970;49.900;10.774;2024-03-25T13:23:37;5.25;;;1.60;;
39502;SDS011;26970;49.900;10.774;2024-03-25T13:26:02;4.07;;;1.90;;
39502;SDS011;26970;49.900;10.774;2024-03-25T13:28:28;3.55;;;1.60;;
39502;SDS011;26970;49.900;10.774;2024-03-25T13:30:54;2.92;;;1.48;;
39502;SDS011;26970;49.900;10.774;2024-03-25T13:33:19;4.25;;;1.58;;
39502;SDS011;26970;49.900;10.774;2024-03-25T13:35:45;3.17;;;1.65;;
39502;SDS011;26970;49.900;10.774;2024-03-25T13:38:10;3.90;;;1.88;;
39502;SDS011;26970;49.900;10.774;2024-03-25T13:40:36;4.97;;;1.83;;
39502;SDS011;26970;49.900;10.774;2024-03-25T13:43:01;3.05;;;1.60;;
39502;SDS011;26970;49.900;10.774;2024-03-25T13:45:27;6.70;;;1.60;;
39502;SDS011;26970;49.900;10.774;2024-03-25T13:47:52;5.60;;;1.67;;
39502;SDS011;26970;49.900;10.774;2024-03-25T13:50:18;3.50;;;1.55;;
39502;SDS011;26970;49.900;10.774;2024-03-25T13:52:47;3.58;;;1.60;;
39502;SDS011;26970;49.900;10.774;2024-03-25T13:55:13;2.97;;;1.40;;
39502;SDS011;26970;49.900;10.774;2024-03-25T13:57:38;3.88;;;1.70;;
39502;SDS011;26970;49.900;10.774;2024-03-25T14:00:04;3.03;;;1.55;;
39502;SDS011;26970;49.900;10.774;2024-03-25T14:02:33;2.53;;;1.60;;
39502;SDS011;26970;49.900;10.774;2024-03-25T14:05:00;5.32;;;1.80;;
39502;SDS011;26970;49.900;10.774;2024-03-25T14:07:26;3.72;;;1.80;;
39502;SDS011;26970;49.900;10.774;2024-03-25T14:09:52;5.75;;;1.70;;
39502;SDS011;26970;49.900;10.774;2024-03-25T14:12:18;4.53;;;1.58;;
39502;SDS011;26970;49.900;10.774;2024-03-25T14:14:43;5.60;;;1.85;;
39502;SDS011;26970;49.900;10.774;2024-03-25T14:17:09;6.07;;;2.03;;
39502;SDS011;26970;49.900;10.774;2024-03-25T14:19:34;1.52;;;1.30;;
39502;SDS011;26970;49.900;10.774;2024-03-25T14:22:00;3.47;;;1.30;;
39502;SDS011;26970;49.900;10.774;2024-03-25T14:24:25;3.20;;;2.08;;
39502;SDS011;26970;49.900;10.774;2024-03-25T14:26:51;4.97;;;1.90;;
39502;SDS011;26970;49.900;10.774;2024-03-25T14:29:16;4.55;;;1.92;;